createdAt,value
2019-05-28T00:02:06.810Z,12.26
2019-05-28T00:04:37.394Z,12.41
2019-05-28T00:07:07.961Z,12.71
2019-05-28T00:09:38.516Z,12.71
2019-05-28T00:12:08.765Z,12.83
2019-05-28T00:14:39.338Z,12.90
2019-05-28T00:17:09.916Z,12.99
2019-05-28T00:19:40.372Z,12.99
2019-05-28T00:22:10.666Z,13.04
2019-05-28T00:24:41.244Z,13.06
2019-05-28T00:27:11.794Z,13.08
2019-05-28T00:29:42.195Z,13.06
2019-05-28T00:32:12.814Z,13.05
2019-05-28T00:34:44.481Z,13.03
2019-05-28T00:37:14.987Z,13.03
2019-05-28T00:39:46.070Z,13.03
2019-05-28T00:42:17.746Z,13.03
2019-05-28T00:44:49.310Z,13.05
2019-05-28T00:47:19.607Z,13.08
2019-05-28T00:49:50.186Z,13.07
2019-05-28T00:52:20.760Z,13.07
2019-05-28T00:54:51.037Z,13.06
2019-05-28T00:57:21.818Z,13.05
2019-05-28T00:59:52.793Z,13.05
2019-05-28T01:02:23.901Z,13.05
2019-05-28T01:04:54.344Z,13.05
2019-05-28T01:07:24.927Z,13.05
2019-05-28T01:09:55.682Z,13.06
2019-05-28T01:12:25.990Z,13.08
2019-05-28T01:14:56.395Z,13.13
2019-05-28T01:17:27.226Z,13.21
2019-05-28T01:19:58.262Z,13.20
2019-05-28T01:22:31.245Z,13.22
2019-05-28T01:25:02.892Z,13.20
2019-05-28T01:27:33.174Z,13.17
2019-05-28T01:30:03.510Z,13.15
2019-05-28T01:32:34.884Z,13.13
2019-05-28T01:35:05.638Z,13.14
2019-05-28T01:37:36.158Z,13.13
2019-05-28T01:40:07.399Z,13.12
2019-05-28T01:42:38.345Z,13.11
2019-05-28T01:45:09.513Z,13.13
2019-05-28T01:47:39.855Z,13.15
2019-05-28T01:50:10.691Z,13.14
2019-05-28T01:52:41.051Z,13.13
2019-05-28T01:55:11.537Z,13.14
2019-05-28T01:57:42.093Z,13.12
2019-05-28T02:00:12.940Z,12.92
2019-05-28T02:02:43.238Z,12.92
2019-05-28T02:05:14.946Z,12.87
2019-05-28T02:07:45.264Z,12.82
2019-05-28T02:10:15.968Z,12.77
2019-05-28T02:12:46.235Z,12.75
2019-05-28T02:15:17.515Z,12.73
2019-05-28T02:17:50.962Z,12.72
2019-05-28T02:20:23.247Z,12.70
2019-05-28T02:22:53.463Z,12.69
2019-05-28T02:25:24.126Z,12.69
2019-05-28T02:27:54.637Z,12.67
2019-05-28T02:30:25.664Z,12.64
2019-05-28T02:32:56.470Z,12.59
2019-05-28T02:35:27.558Z,12.56
2019-05-28T02:37:58.121Z,12.55
2019-05-28T02:40:29.762Z,12.52
2019-05-28T02:43:00.436Z,12.52
2019-05-28T02:45:30.863Z,12.58
2019-05-28T02:48:01.881Z,12.61
2019-05-28T02:50:56.649Z,12.64
2019-05-28T02:53:27.458Z,12.71
2019-05-28T02:55:58.849Z,12.78
2019-05-28T02:58:33.169Z,12.84
2019-05-28T03:01:07.303Z,12.88
2019-05-28T03:03:38.803Z,12.93
2019-05-28T03:06:10.661Z,12.94
2019-05-28T03:08:42.406Z,12.89
2019-05-28T03:11:12.723Z,12.82
2019-05-28T03:13:42.991Z,12.77
2019-05-28T03:16:15.664Z,12.74
2019-05-28T03:18:48.106Z,12.73
2019-05-28T03:21:19.528Z,12.74
2019-05-28T03:23:50.040Z,12.78
2019-05-28T03:26:23.622Z,12.83
2019-05-28T03:28:53.274Z,12.86
2019-05-28T03:31:23.576Z,12.90
2019-05-28T03:33:53.968Z,12.96
2019-05-28T03:36:27.705Z,12.96
2019-05-28T03:38:59.951Z,12.98
2019-05-28T03:41:32.928Z,12.98
2019-05-28T03:44:03.401Z,13.00
2019-05-28T03:46:33.710Z,13.04
2019-05-28T03:49:04.071Z,13.07
2019-05-28T03:51:34.374Z,13.08
2019-05-28T03:54:05.056Z,13.07
2019-05-28T03:56:35.882Z,13.07
2019-05-28T03:59:06.281Z,13.08
2019-05-28T04:01:36.566Z,13.06
2019-05-28T04:04:07.171Z,13.06
2019-05-28T04:06:37.419Z,13.06
2019-05-28T04:09:09.306Z,13.05
2019-05-28T04:11:44.838Z,13.03
2019-05-28T04:14:12.100Z,13.03
2019-05-28T04:16:42.434Z,13.07
2019-05-28T04:19:13.021Z,13.12
2019-05-28T04:21:43.290Z,13.15
2019-05-28T04:24:16.094Z,13.17
2019-05-28T04:26:46.854Z,13.16
2019-05-28T04:29:17.397Z,13.18
2019-05-28T04:31:47.696Z,13.18
2019-05-28T04:34:18.273Z,13.22
2019-05-28T04:36:48.600Z,13.22
2019-05-28T04:39:19.236Z,13.40
2019-05-28T04:41:49.991Z,13.40
2019-05-28T04:44:20.670Z,13.49
2019-05-28T04:46:51.274Z,13.57
2019-05-28T04:49:21.580Z,13.64
2019-05-28T04:51:52.163Z,13.71
2019-05-28T04:54:23.439Z,13.77
2019-05-28T04:56:54.061Z,13.84
2019-05-28T04:59:24.677Z,13.90
2019-05-28T05:01:55.091Z,13.93
2019-05-28T05:04:25.623Z,13.97
2019-05-28T05:06:56.206Z,14.04
2019-05-28T05:09:26.945Z,14.09
2019-05-28T05:11:58.898Z,14.17
2019-05-28T05:14:29.242Z,14.29
2019-05-28T05:17:01.412Z,14.45
2019-05-28T05:19:31.995Z,14.65
2019-05-28T05:22:02.566Z,14.77
2019-05-28T05:24:32.911Z,14.89
2019-05-28T05:27:04.417Z,14.94
2019-05-28T05:29:34.931Z,14.94
2019-05-28T05:32:07.024Z,14.92
2019-05-28T05:34:39.227Z,14.87
2019-05-28T05:37:10.450Z,14.77
2019-05-28T05:39:41.004Z,14.80
2019-05-28T05:42:11.410Z,14.86
2019-05-28T05:44:42.061Z,14.96
2019-05-28T05:47:13.032Z,15.12
2019-05-28T05:49:43.395Z,15.26
2019-05-28T05:52:14.163Z,15.20
2019-05-28T05:54:44.726Z,15.23
2019-05-28T05:57:15.026Z,15.34
2019-05-28T05:59:45.627Z,15.49
2019-05-28T06:02:16.485Z,15.68
2019-05-28T06:04:49.764Z,15.68
2019-05-28T06:07:20.533Z,15.69
2019-05-28T06:09:51.104Z,15.60
2019-05-28T06:12:21.993Z,15.60
2019-05-28T06:14:52.857Z,15.53
2019-05-28T06:17:23.342Z,15.44
2019-05-28T06:19:54.940Z,15.26
2019-05-28T06:22:25.471Z,15.18
2019-05-28T06:24:57.998Z,15.23
2019-05-28T06:27:29.705Z,15.23
2019-05-28T06:30:02.933Z,15.22
2019-05-28T06:32:35.198Z,15.21
2019-05-28T06:35:07.253Z,15.20
2019-05-28T06:37:37.846Z,15.14
2019-05-28T06:40:09.158Z,15.14
2019-05-28T06:42:40.349Z,15.20
2019-05-28T06:45:12.349Z,15.25
2019-05-28T06:47:45.318Z,15.28
2019-05-28T06:50:15.350Z,15.22
2019-05-28T06:52:45.646Z,15.11
2019-05-28T06:55:16.573Z,15.11
2019-05-28T06:57:47.311Z,15.01
2019-05-28T07:00:19.694Z,15.01
2019-05-28T07:02:50.473Z,15.08
2019-05-28T07:05:21.019Z,15.08
2019-05-28T07:07:52.061Z,15.08
2019-05-28T07:10:23.214Z,15.11
2019-05-28T07:12:53.507Z,15.12
2019-05-28T07:15:24.107Z,14.98
2019-05-28T07:17:59.528Z,14.96
2019-05-28T07:20:28.271Z,14.97
2019-05-28T07:22:58.707Z,15.05
2019-05-28T07:25:29.031Z,15.11
2019-05-28T07:28:10.438Z,15.16
2019-05-28T07:30:32.097Z,15.62
2019-05-28T07:33:02.756Z,15.62
2019-05-28T07:35:45.329Z,15.76
2019-05-28T07:38:06.885Z,15.83
2019-05-28T07:40:37.446Z,15.87
2019-05-28T07:43:07.767Z,15.93
2019-05-28T07:45:38.470Z,15.99
2019-05-28T07:48:08.824Z,15.99
2019-05-28T07:50:42.401Z,16.00
2019-05-28T07:53:13.215Z,16.13
2019-05-28T07:55:44.082Z,16.48
2019-05-28T07:58:14.363Z,16.48
2019-05-28T08:00:45.362Z,17.26
2019-05-28T08:03:16.355Z,17.26
2019-05-28T08:05:46.920Z,17.50
2019-05-28T08:08:20.720Z,17.52
2019-05-28T08:10:51.083Z,17.34
2019-05-28T08:13:21.793Z,17.04
2019-05-28T08:15:52.178Z,16.80
2019-05-28T08:18:22.482Z,16.75
2019-05-28T08:20:52.905Z,16.65
2019-05-28T08:23:23.264Z,16.39
2019-05-28T08:25:54.613Z,16.29
2019-05-28T08:28:25.101Z,16.35
2019-05-28T08:31:13.993Z,16.53
2019-05-28T08:33:30.145Z,16.86
2019-05-28T08:36:02.580Z,17.23
2019-05-28T08:38:33.080Z,18.26
2019-05-28T08:41:05.100Z,18.26
2019-05-28T08:43:36.987Z,18.51
2019-05-28T08:46:08.814Z,18.01
2019-05-28T08:48:39.450Z,17.48
2019-05-28T08:51:10.524Z,17.00
2019-05-28T08:53:41.269Z,16.57
2019-05-28T08:56:11.940Z,15.44
2019-05-28T08:58:42.300Z,14.14
2019-05-28T09:01:12.871Z,13.67
2019-05-28T09:03:43.804Z,13.48
2019-05-28T09:06:14.391Z,13.44
2019-05-28T09:08:44.965Z,13.42
2019-05-28T09:11:15.805Z,13.36
2019-05-28T09:13:46.204Z,13.20
2019-05-28T09:16:18.697Z,12.99
2019-05-28T09:18:49.332Z,12.71
2019-05-28T09:21:20.891Z,12.30
2019-05-28T09:23:52.332Z,11.89
2019-05-28T09:26:22.709Z,11.83
2019-05-28T09:29:09.360Z,11.91
2019-05-28T09:32:03.127Z,11.97
2019-05-28T09:34:42.593Z,11.83
2019-05-28T09:37:30.105Z,11.70
2019-05-28T09:40:21.395Z,11.66
2019-05-28T09:42:57.085Z,11.70
2019-05-28T09:45:30.938Z,11.74
2019-05-28T09:48:08.157Z,11.76
2019-05-28T09:50:52.806Z,11.74
2019-05-28T09:53:29.228Z,11.63
2019-05-28T09:56:05.007Z,11.56
2019-05-28T09:58:39.512Z,11.55
2019-05-28T10:01:15.404Z,11.49
2019-05-28T10:03:54.871Z,11.51
2019-05-28T10:06:36.789Z,11.55
2019-05-28T10:09:00.208Z,11.67
2019-05-28T10:11:32.109Z,11.84
2019-05-28T10:14:02.741Z,12.16
2019-05-28T10:16:34.173Z,12.59
2019-05-28T10:19:04.631Z,12.59
2019-05-28T10:21:35.256Z,12.71
2019-05-28T10:24:05.969Z,12.63
2019-05-28T10:26:36.265Z,12.56
2019-05-28T10:29:07.111Z,12.48
2019-05-28T10:31:37.504Z,12.32
2019-05-28T10:34:08.098Z,12.30
2019-05-28T10:36:38.475Z,12.04
2019-05-28T10:39:09.761Z,11.57
2019-05-28T10:41:40.121Z,11.26
2019-05-28T10:44:10.691Z,11.14
2019-05-28T10:46:41.258Z,11.09
2019-05-28T10:49:11.889Z,11.10
2019-05-28T10:51:43.277Z,11.18
2019-05-28T10:54:15.297Z,11.30
2019-05-28T10:56:45.740Z,11.41
2019-05-28T10:59:16.331Z,11.52
2019-05-28T11:01:46.658Z,11.55
2019-05-28T11:04:17.737Z,11.66
2019-05-28T11:06:51.761Z,12.03
2019-05-28T11:09:20.479Z,12.53
2019-05-28T11:11:51.726Z,12.99
2019-05-28T11:14:22.278Z,13.44
2019-05-28T11:16:52.667Z,13.76
2019-05-28T11:19:24.356Z,14.03
2019-05-28T11:21:55.044Z,14.15
2019-05-28T11:24:25.412Z,14.16
2019-05-28T11:26:56.087Z,14.33
2019-05-28T11:29:27.024Z,14.53
2019-05-28T11:31:57.732Z,14.81
2019-05-28T11:34:28.298Z,15.23
2019-05-28T11:37:08.750Z,15.70
2019-05-28T11:39:31.551Z,16.18
2019-05-28T11:42:02.240Z,17.95
2019-05-28T11:44:33.124Z,17.95
2019-05-28T11:47:03.461Z,18.58
2019-05-28T11:49:34.064Z,19.32
2019-05-28T11:52:04.662Z,19.80
2019-05-28T11:54:35.239Z,18.85
2019-05-28T11:57:05.871Z,19.29
2019-05-28T11:59:36.567Z,18.61
2019-05-28T12:02:08.468Z,17.57
2019-05-28T12:04:38.809Z,17.33
2019-05-28T12:07:25.171Z,17.93
2019-05-28T12:09:42.845Z,18.24
2019-05-28T12:12:14.052Z,18.12
2019-05-28T12:14:44.657Z,19.24
2019-05-28T12:17:16.159Z,20.15
2019-05-28T12:19:46.860Z,20.84
2019-05-28T12:22:17.524Z,19.73
2019-05-28T12:24:48.393Z,19.73
2019-05-28T12:27:18.985Z,18.17
2019-05-28T12:29:52.140Z,17.68
2019-05-28T12:34:58.042Z,16.29
2019-05-28T12:37:46.186Z,16.76
2019-05-28T12:40:01.959Z,16.83
2019-05-28T12:42:32.393Z,16.71
2019-05-28T12:45:09.506Z,16.56
2019-05-28T12:47:35.205Z,16.22
2019-05-28T12:50:18.831Z,16.37
2019-05-28T12:52:38.767Z,16.23
2019-05-28T12:55:10.105Z,16.41
2019-05-28T12:57:40.541Z,16.57
2019-05-28T13:00:11.764Z,16.19
2019-05-28T13:02:42.439Z,16.21
2019-05-28T13:05:14.777Z,16.52
2019-05-28T13:07:45.287Z,16.23
2019-05-28T13:10:17.790Z,16.03
2019-05-28T13:12:48.199Z,15.83
2019-05-28T13:15:19.367Z,15.68
2019-05-28T13:17:50.135Z,15.52
2019-05-28T13:20:20.794Z,15.52
2019-05-28T13:22:52.838Z,15.34
2019-05-28T13:25:23.218Z,15.54
2019-05-28T13:27:54.092Z,15.64
2019-05-28T13:30:25.309Z,15.83
2019-05-28T13:32:56.016Z,15.93
2019-05-28T13:35:27.047Z,16.11
2019-05-28T13:37:59.129Z,16.22
2019-05-28T13:40:30.061Z,16.30
2019-05-28T13:43:01.158Z,16.41
2019-05-28T13:45:32.368Z,16.06
2019-05-28T13:48:02.945Z,16.01
2019-05-28T13:50:35.053Z,16.00
2019-05-28T13:53:05.630Z,16.17
2019-05-28T13:55:36.478Z,16.36
2019-05-28T13:58:08.973Z,16.62
2019-05-28T14:00:40.285Z,16.67
2019-05-28T14:03:11.056Z,16.18
2019-05-28T14:05:42.150Z,16.18
2019-05-28T14:08:13.034Z,16.34
2019-05-28T14:10:43.458Z,16.05
2019-05-28T14:13:14.114Z,16.17
2019-05-28T14:15:46.439Z,16.22
2019-05-28T14:18:16.805Z,16.28
2019-05-28T14:20:47.225Z,16.64
2019-05-28T14:23:17.568Z,16.93
2019-05-28T14:25:48.233Z,16.90
2019-05-28T14:28:18.531Z,17.02
2019-05-28T14:30:59.428Z,17.14
2019-05-28T14:33:21.440Z,16.90
2019-05-28T14:35:52.038Z,17.00
2019-05-28T14:38:24.040Z,17.12
2019-05-28T14:40:54.736Z,16.80
2019-05-28T14:43:26.379Z,17.07
2019-05-28T14:45:57.003Z,16.75
2019-05-28T14:48:27.853Z,16.44
2019-05-28T14:50:58.566Z,16.44
2019-05-28T14:53:29.854Z,16.37
2019-05-28T14:56:00.546Z,16.90
2019-05-28T14:58:32.332Z,17.35
2019-05-28T15:01:05.752Z,17.69
2019-05-28T15:03:36.741Z,17.91
2019-05-28T15:06:07.594Z,17.91
2019-05-28T15:08:38.259Z,17.34
2019-05-28T15:11:08.902Z,17.16
2019-05-28T15:13:39.530Z,17.00
2019-05-28T15:16:11.337Z,16.87
2019-05-28T15:18:41.947Z,16.87
2019-05-28T15:21:12.624Z,16.98
2019-05-28T15:23:43.562Z,16.93
2019-05-28T15:26:14.187Z,16.58
2019-05-28T15:28:45.167Z,16.31
2019-05-28T15:31:18.164Z,16.05
2019-05-28T15:33:48.990Z,15.65
2019-05-28T15:36:19.507Z,15.29
2019-05-28T15:38:50.329Z,15.08
2019-05-28T15:41:21.435Z,15.01
2019-05-28T15:43:52.065Z,15.03
2019-05-28T15:46:22.671Z,14.88
2019-05-28T15:48:53.317Z,14.89
2019-05-28T15:51:23.706Z,14.67
2019-05-28T15:53:54.338Z,14.49
2019-05-28T15:56:24.883Z,14.38
2019-05-28T15:58:55.284Z,14.36
2019-05-28T16:01:25.596Z,14.22
2019-05-28T16:03:58.041Z,14.09
2019-05-28T16:06:28.938Z,13.92
2019-05-28T16:08:59.520Z,13.81
2019-05-28T16:11:32.190Z,13.83
2019-05-28T16:14:03.002Z,13.89
2019-05-28T16:16:33.674Z,13.86
2019-05-28T16:19:04.356Z,13.86
2019-05-28T16:21:34.970Z,13.82
2019-05-28T16:24:05.661Z,13.92
2019-05-28T16:26:36.243Z,13.98
2019-05-28T16:29:06.548Z,14.06
2019-05-28T16:31:37.147Z,14.13
2019-05-28T16:34:09.206Z,14.16
2019-05-28T16:36:40.234Z,14.22
2019-05-28T16:39:12.633Z,14.13
2019-05-28T16:41:43.264Z,14.21
2019-05-28T16:44:13.618Z,14.32
2019-05-28T16:46:45.684Z,14.53
2019-05-28T16:49:16.582Z,14.61
2019-05-28T16:51:47.451Z,14.68
2019-05-28T16:54:19.367Z,15.00
2019-05-28T16:56:50.668Z,15.25
2019-05-28T16:59:21.318Z,15.25
2019-05-28T17:01:51.897Z,15.44
2019-05-28T17:04:22.495Z,15.33
2019-05-28T17:06:53.072Z,15.33
2019-05-28T17:09:25.194Z,15.35
2019-05-28T17:11:55.936Z,15.43
2019-05-28T17:14:27.208Z,15.47
2019-05-28T17:16:57.917Z,15.53
2019-05-28T17:19:29.261Z,15.64
2019-05-28T17:22:00.160Z,15.59
2019-05-28T17:24:30.590Z,15.59
2019-05-28T17:27:01.213Z,15.60
2019-05-28T17:29:31.918Z,15.60
2019-05-28T17:32:02.542Z,15.53
2019-05-28T17:34:33.122Z,15.44
2019-05-28T17:37:06.434Z,15.25
2019-05-28T17:39:37.913Z,15.13
2019-05-28T17:42:09.535Z,14.95
2019-05-28T17:44:40.152Z,14.95
2019-05-28T17:47:10.575Z,14.93
2019-05-28T17:49:41.575Z,14.89
2019-05-28T17:52:11.980Z,14.84
2019-05-28T17:54:42.607Z,14.81
2019-05-28T17:57:13.029Z,14.78
2019-05-28T17:59:43.617Z,14.75
2019-05-28T18:02:14.148Z,14.70
2019-05-28T18:04:44.478Z,14.66
2019-05-28T18:07:15.438Z,14.59
2019-05-28T18:09:51.441Z,14.50
2019-05-28T18:12:21.818Z,14.44
2019-05-28T18:14:52.524Z,14.37
2019-05-28T18:17:23.187Z,14.33
2019-05-28T18:19:54.739Z,14.30
2019-05-28T18:22:25.396Z,14.23
2019-05-28T18:24:55.970Z,14.12
2019-05-28T18:27:26.364Z,13.98
2019-05-28T18:29:57.047Z,13.85
2019-05-28T18:32:27.995Z,13.78
2019-05-28T18:34:58.360Z,13.78
2019-05-28T18:37:29.117Z,13.81
2019-05-28T18:40:01.221Z,13.77
2019-05-28T18:42:31.657Z,13.76
2019-05-28T18:45:03.653Z,13.72
2019-05-28T18:47:34.134Z,13.70
2019-05-28T18:50:05.708Z,13.64
2019-05-28T18:52:37.788Z,13.62
2019-05-28T18:55:08.453Z,13.59
2019-05-28T18:57:39.259Z,13.57
2019-05-28T19:00:11.932Z,13.56
2019-05-28T19:02:43.107Z,13.49
2019-05-28T19:05:16.988Z,13.44
2019-05-28T19:07:47.714Z,13.38
2019-05-28T19:10:18.552Z,13.30
2019-05-28T19:12:48.989Z,13.25
2019-05-28T19:15:19.405Z,13.20
2019-05-28T19:17:49.880Z,13.12
2019-05-28T19:20:20.526Z,13.07
2019-05-28T19:22:51.426Z,13.02
2019-05-28T19:25:22.139Z,12.97
2019-05-28T19:27:53.224Z,12.94
2019-05-28T19:30:34.362Z,12.92
2019-05-28T19:33:06.306Z,12.87
2019-05-28T19:35:37.302Z,12.84
2019-05-28T19:38:08.133Z,12.82
2019-05-28T19:40:40.548Z,12.81
2019-05-28T19:43:12.298Z,12.79
2019-05-28T19:45:43.317Z,12.78
2019-05-28T19:48:14.113Z,12.75
2019-05-28T19:50:44.544Z,12.78
2019-05-28T19:53:16.293Z,12.76
2019-05-28T19:55:46.942Z,12.78
2019-05-28T19:58:17.360Z,12.79
2019-05-28T20:00:50.647Z,12.76
2019-05-28T20:03:21.563Z,12.74
2019-05-28T20:05:52.237Z,12.74
2019-05-28T20:08:23.839Z,12.74
2019-05-28T20:10:55.406Z,12.71
2019-05-28T20:13:26.409Z,12.65
2019-05-28T20:15:57.348Z,12.63
2019-05-28T20:18:27.705Z,12.60
2019-05-28T20:20:58.237Z,12.56
2019-05-28T20:23:28.731Z,12.53
2019-05-28T20:25:59.373Z,12.50
2019-05-28T20:28:31.696Z,12.47
2019-05-28T20:31:06.039Z,12.45
2019-05-28T20:33:38.061Z,12.42
2019-05-28T20:36:09.917Z,12.41
2019-05-28T20:38:40.883Z,12.44
2019-05-28T20:41:11.672Z,12.39
2019-05-28T20:43:42.085Z,12.37
2019-05-28T20:46:12.773Z,12.33
2019-05-28T20:48:43.089Z,12.31
2019-05-28T20:51:21.454Z,12.28
2019-05-28T20:53:45.725Z,12.24
2019-05-28T20:56:16.469Z,12.23
2019-05-28T20:58:47.395Z,12.18
2019-05-28T21:01:18.278Z,12.18
2019-05-28T21:03:49.693Z,12.05
2019-05-28T21:06:20.323Z,12.00
2019-05-28T21:08:50.729Z,11.89
2019-05-28T21:11:23.064Z,11.78
2019-05-28T21:13:53.384Z,11.70
2019-05-28T21:16:24.968Z,11.64
2019-05-28T21:18:55.316Z,11.58
2019-05-28T21:21:26.516Z,11.47
2019-05-28T21:23:57.846Z,11.42
2019-05-28T21:26:28.308Z,11.35
2019-05-28T21:28:58.889Z,11.27
2019-05-28T21:31:30.189Z,11.22
2019-05-28T21:34:01.616Z,11.15
2019-05-28T21:36:32.019Z,11.09
2019-05-28T21:39:02.837Z,11.01
2019-05-28T21:41:35.221Z,10.98
2019-05-28T21:44:06.106Z,11.05
2019-05-28T21:46:36.437Z,11.12
2019-05-28T21:49:06.769Z,11.15
2019-05-28T21:51:37.064Z,11.13
2019-05-28T21:54:07.458Z,11.11
2019-05-28T21:56:37.844Z,11.03
2019-05-28T21:59:08.803Z,10.87
2019-05-28T22:01:39.978Z,10.78
2019-05-28T22:04:12.560Z,10.68
2019-05-28T22:06:42.914Z,10.57
2019-05-28T22:09:13.339Z,10.49
2019-05-28T22:11:43.598Z,10.44
2019-05-28T22:14:14.006Z,10.41
2019-05-28T22:16:44.341Z,10.35
2019-05-28T22:19:14.619Z,10.26
2019-05-28T22:21:45.252Z,9.98
2019-05-28T22:24:15.695Z,9.98
2019-05-28T22:26:45.958Z,9.85
2019-05-28T22:29:16.577Z,9.72
2019-05-28T22:31:46.875Z,9.64
2019-05-28T22:34:17.161Z,9.58
2019-05-28T22:36:47.700Z,9.54
2019-05-28T22:39:17.976Z,9.50
2019-05-28T22:41:55.335Z,9.45
2019-05-28T22:44:25.765Z,9.38
2019-05-28T22:46:57.010Z,9.35
2019-05-28T22:49:30.352Z,9.32
2019-05-28T22:51:59.841Z,9.23
2019-05-28T22:54:30.108Z,9.10
2019-05-28T22:57:00.424Z,9.06
2019-05-28T22:59:30.818Z,8.98
2019-05-28T23:02:01.216Z,8.93
2019-05-28T23:04:31.628Z,8.90
2019-05-28T23:07:03.317Z,8.85
2019-05-28T23:09:33.677Z,8.78
2019-05-28T23:12:06.425Z,8.74
2019-05-28T23:14:36.970Z,8.72
2019-05-28T23:17:08.414Z,8.68
2019-05-28T23:19:38.772Z,8.66
2019-05-28T23:22:09.345Z,8.64
2019-05-28T23:24:39.945Z,8.57
2019-05-28T23:27:10.297Z,8.57
2019-05-28T23:29:40.967Z,8.61
2019-05-28T23:32:12.419Z,8.58
2019-05-28T23:34:42.786Z,8.56
2019-05-28T23:37:13.108Z,8.51
2019-05-28T23:39:43.654Z,8.46
2019-05-28T23:42:14.286Z,8.46
2019-05-28T23:44:44.843Z,8.46
2019-05-28T23:47:15.182Z,8.48
2019-05-28T23:49:45.750Z,8.45
2019-05-28T23:52:17.038Z,8.35
2019-05-28T23:54:48.673Z,8.33
2019-05-28T23:57:19.025Z,8.26
2019-05-28T23:59:49.656Z,8.14
